WZZ2W EDDH-EDDK
Flight info
| Callsign | WZZ2W |
|---|---|
| Flight time | N/A |
| Altitude | 24000 |
| Route | IDEKO7G IDEKO N850 NIE DCT LARBU DCT PODER Z189 RUNER T858 KOPAG KOPAG1G |
| Aircraft | A321/M-SDE3FGHIRWY/LB1 |
Departure
| Time | 2026-04-22 08:02 |
|---|---|
| Airport | Hamburg Helmut Schmidt Airport (EDDH) |
Arrival
| Time | N/A |
|---|---|
| Airport | Cologne Bonn Airport (EDDK) |
| Time | Latitude | Longitude | Altitude | Speed | Heading |
|---|---|---|---|---|---|
| 2026-04-22 07:48 | 53.63415 | 10.00358 | 46 ft | 0 kts | 87° |
| 2026-04-22 07:55 | 53.63414 | 10.00353 | 46 ft | 3 kts | 88° |
| 2026-04-22 07:55 | 53.63416 | 10.00308 | 46 ft | 4 kts | 102° |
| 2026-04-22 07:56 | 53.63424 | 10.00266 | 45 ft | 4 kts | 120° |
| 2026-04-22 07:56 | 53.63440 | 10.00231 | 43 ft | 4 kts | 145° |
| 2026-04-22 07:56 | 53.63461 | 10.00216 | 43 ft | 1 kts | 175° |
| 2026-04-22 07:56 | 53.63462 | 10.00216 | 43 ft | 0 kts | 175° |
| 2026-04-22 07:58 | 53.63461 | 10.00216 | 43 ft | 0 kts | 175° |
| 2026-04-22 07:58 | 53.63454 | 10.00214 | 43 ft | 2 kts | 191° |
| 2026-04-22 07:59 | 53.63441 | 10.00185 | 44 ft | 5 kts | 248° |
| 2026-04-22 07:59 | 53.63446 | 10.00116 | 46 ft | 7 kts | 265° |
| 2026-04-22 07:59 | 53.63414 | 10.00038 | 45 ft | 9 kts | 230° |
| 2026-04-22 07:59 | 53.63373 | 9.99954 | 45 ft | 7 kts | 230° |
| 2026-04-22 08:00 | 53.63337 | 9.99881 | 42 ft | 9 kts | 231° |
| 2026-04-22 08:00 | 53.63295 | 9.99795 | 45 ft | 10 kts | 231° |
| 2026-04-22 08:00 | 53.63275 | 9.99683 | 45 ft | 11 kts | 276° |
| 2026-04-22 08:00 | 53.63283 | 9.99603 | 44 ft | 0 kts | 279° |
| 2026-04-22 08:01 | 53.63284 | 9.99597 | 44 ft | 2 kts | 279° |
| 2026-04-22 08:01 | 53.63288 | 9.99553 | 44 ft | 6 kts | 279° |
| 2026-04-22 08:01 | 53.63290 | 9.99453 | 45 ft | 11 kts | 264° |
| 2026-04-22 08:01 | 53.63334 | 9.99343 | 46 ft | 17 kts | 331° |
| 2026-04-22 08:02 | 53.63625 | 9.99091 | 44 ft | 83 kts | 333° |
| 2026-04-22 08:02 | 53.64333 | 9.98479 | 41 ft | 143 kts | 333° |
| 2026-04-22 08:02 | 53.65278 | 9.97661 | 547 ft | 151 kts | 332° |
| 2026-04-22 08:02 | 53.66225 | 9.96870 | 1282 ft | 152 kts | 333° |
| 2026-04-22 08:03 | 53.66893 | 9.96323 | 1557 ft | 165 kts | 334° |
| 2026-04-22 08:03 | 53.67992 | 9.95403 | 1785 ft | 187 kts | 333° |
| 2026-04-22 08:03 | 53.69210 | 9.94352 | 2083 ft | 203 kts | 332° |
| 2026-04-22 08:03 | 53.70444 | 9.93148 | 2617 ft | 208 kts | 319° |
| 2026-04-22 08:04 | 53.71254 | 9.91118 | 3279 ft | 213 kts | 288° |
| 2026-04-22 08:04 | 53.71334 | 9.88612 | 3855 ft | 225 kts | 259° |
| 2026-04-22 08:04 | 53.70848 | 9.85946 | 4114 ft | 251 kts | 253° |
| 2026-04-22 08:04 | 53.70270 | 9.83065 | 4627 ft | 265 kts | 253° |
| 2026-04-22 08:05 | 53.69666 | 9.80094 | 5373 ft | 271 kts | 252° |
| 2026-04-22 08:05 | 53.69051 | 9.77059 | 6086 ft | 276 kts | 252° |
| 2026-04-22 08:05 | 53.68429 | 9.73962 | 6798 ft | 282 kts | 253° |
| 2026-04-22 08:05 | 53.67802 | 9.70801 | 7475 ft | 286 kts | 253° |
| 2026-04-22 08:06 | 53.67169 | 9.67598 | 8196 ft | 290 kts | 253° |
| 2026-04-22 08:06 | 53.66525 | 9.64353 | 8906 ft | 294 kts | 252° |
| 2026-04-22 08:06 | 53.65571 | 9.61285 | 9610 ft | 299 kts | 232° |
| 2026-04-22 08:06 | 53.64061 | 9.58853 | 10221 ft | 305 kts | 213° |
| 2026-04-22 08:07 | 53.62145 | 9.57366 | 10377 ft | 305 kts | 192° |
| 2026-04-22 08:07 | 53.59981 | 9.56857 | 10412 ft | 317 kts | 184° |
| 2026-04-22 08:07 | 53.57795 | 9.56459 | 10415 ft | 324 kts | 184° |
| 2026-04-22 08:07 | 53.55529 | 9.56032 | 10418 ft | 337 kts | 185° |
| 2026-04-22 08:08 | 53.53110 | 9.55565 | 10418 ft | 363 kts | 185° |
| 2026-04-22 08:08 | 53.50519 | 9.55060 | 10405 ft | 384 kts | 185° |
| 2026-04-22 08:08 | 53.47845 | 9.54528 | 10408 ft | 389 kts | 185° |
| 2026-04-22 08:08 | 53.45131 | 9.53977 | 10800 ft | 394 kts | 185° |
| 2026-04-22 08:09 | 53.42402 | 9.53429 | 11479 ft | 397 kts | 185° |
| 2026-04-22 08:09 | 53.39650 | 9.52884 | 12115 ft | 400 kts | 185° |
| 2026-04-22 08:09 | 53.36869 | 9.52336 | 12728 ft | 404 kts | 185° |
| 2026-04-22 08:09 | 53.34105 | 9.51794 | 13353 ft | 408 kts | 184° |
| 2026-04-22 08:10 | 53.31272 | 9.51245 | 13979 ft | 412 kts | 184° |
| 2026-04-22 08:10 | 53.28411 | 9.50692 | 14559 ft | 416 kts | 184° |
| 2026-04-22 08:10 | 53.25523 | 9.50133 | 15115 ft | 420 kts | 184° |
| 2026-04-22 08:10 | 53.22609 | 9.49564 | 15671 ft | 424 kts | 184° |
| 2026-04-22 08:11 | 53.19666 | 9.48989 | 16224 ft | 428 kts | 184° |
| 2026-04-22 08:11 | 53.16697 | 9.48408 | 16761 ft | 432 kts | 184° |
| 2026-04-22 08:11 | 53.13701 | 9.47822 | 17286 ft | 435 kts | 184° |
| 2026-04-22 08:11 | 53.10680 | 9.47232 | 17794 ft | 439 kts | 184° |
| 2026-04-22 08:12 | 53.07632 | 9.46642 | 18288 ft | 443 kts | 184° |
| 2026-04-22 08:12 | 53.04559 | 9.46048 | 18765 ft | 446 kts | 183° |
| 2026-04-22 08:12 | 53.01463 | 9.45450 | 19181 ft | 450 kts | 183° |
| 2026-04-22 08:12 | 52.98344 | 9.44851 | 19602 ft | 453 kts | 183° |
| 2026-04-22 08:13 | 52.95201 | 9.44215 | 20022 ft | 456 kts | 184° |
| 2026-04-22 08:13 | 52.92039 | 9.43538 | 20441 ft | 460 kts | 184° |
| 2026-04-22 08:13 | 52.88857 | 9.42840 | 20857 ft | 463 kts | 184° |
| 2026-04-22 08:13 | 52.85610 | 9.42123 | 21300 ft | 466 kts | 184° |
| 2026-04-22 08:14 | 52.82388 | 9.41419 | 21719 ft | 469 kts | 184° |
| 2026-04-22 08:14 | 52.79185 | 9.40730 | 22118 ft | 472 kts | 184° |
| 2026-04-22 08:14 | 52.75875 | 9.40024 | 22524 ft | 475 kts | 183° |
| 2026-04-22 08:14 | 52.72586 | 9.39327 | 22914 ft | 478 kts | 183° |
| 2026-04-22 08:15 | 52.69275 | 9.38627 | 23295 ft | 481 kts | 183° |
| 2026-04-22 08:15 | 52.65947 | 9.37925 | 23667 ft | 484 kts | 183° |
| 2026-04-22 08:15 | 52.62591 | 9.37218 | 24028 ft | 487 kts | 183° |
| 2026-04-22 08:15 | 52.59272 | 9.36486 | 24321 ft | 490 kts | 184° |
| 2026-04-22 08:16 | 52.55901 | 9.35681 | 24401 ft | 488 kts | 184° |
| 2026-04-22 08:16 | 52.52550 | 9.34839 | 24412 ft | 487 kts | 185° |
| 2026-04-22 08:16 | 52.49203 | 9.33984 | 24411 ft | 487 kts | 185° |
| 2026-04-22 08:16 | 52.45859 | 9.33132 | 24411 ft | 486 kts | 185° |
| 2026-04-22 08:17 | 52.42514 | 9.32293 | 24411 ft | 486 kts | 184° |
| 2026-04-22 08:17 | 52.39168 | 9.31472 | 24422 ft | 486 kts | 184° |
| 2026-04-22 08:17 | 52.35824 | 9.30660 | 24408 ft | 485 kts | 184° |
| 2026-04-22 08:17 | 52.32489 | 9.29854 | 24410 ft | 485 kts | 184° |
| 2026-04-22 08:18 | 52.29150 | 9.29049 | 24407 ft | 485 kts | 184° |
| 2026-04-22 08:18 | 52.25814 | 9.28245 | 24407 ft | 485 kts | 184° |
| 2026-04-22 08:18 | 52.22478 | 9.27443 | 24406 ft | 485 kts | 184° |
| 2026-04-22 08:18 | 52.19139 | 9.26640 | 24404 ft | 484 kts | 184° |
| 2026-04-22 08:19 | 52.15808 | 9.25837 | 24415 ft | 484 kts | 184° |
| 2026-04-22 08:19 | 52.12476 | 9.25030 | 24417 ft | 484 kts | 184° |
| 2026-04-22 08:19 | 52.09144 | 9.24222 | 24416 ft | 484 kts | 184° |
| 2026-04-22 08:19 | 52.05815 | 9.23421 | 24416 ft | 483 kts | 184° |
| 2026-04-22 08:20 | 52.02488 | 9.22627 | 24411 ft | 483 kts | 184° |
| 2026-04-22 08:20 | 51.99160 | 9.21835 | 24405 ft | 483 kts | 184° |
| 2026-04-22 08:20 | 51.95794 | 9.21005 | 24402 ft | 484 kts | 186° |
| 2026-04-22 08:20 | 51.92525 | 9.19598 | 24400 ft | 489 kts | 196° |
| 2026-04-22 08:21 | 51.89406 | 9.17366 | 24402 ft | 493 kts | 206° |
| 2026-04-22 08:21 | 51.86550 | 9.14398 | 24401 ft | 496 kts | 215° |
| 2026-04-22 08:21 | 51.83939 | 9.10638 | 24400 ft | 498 kts | 225° |
| 2026-04-22 08:21 | 51.81651 | 9.06440 | 24398 ft | 498 kts | 228° |
| 2026-04-22 08:22 | 51.79378 | 9.02207 | 24398 ft | 498 kts | 228° |
| 2026-04-22 08:22 | 51.77101 | 8.97978 | 24396 ft | 499 kts | 228° |
| 2026-04-22 08:22 | 51.74851 | 8.93817 | 24391 ft | 499 kts | 228° |
| 2026-04-22 08:22 | 51.72570 | 8.89608 | 24389 ft | 498 kts | 228° |
| 2026-04-22 08:23 | 51.70285 | 8.85398 | 24403 ft | 498 kts | 228° |
| 2026-04-22 08:23 | 51.68006 | 8.81201 | 24408 ft | 497 kts | 228° |
| 2026-04-22 08:23 | 51.65729 | 8.77010 | 24407 ft | 496 kts | 228° |
| 2026-04-22 08:23 | 51.63438 | 8.72852 | 24405 ft | 495 kts | 225° |
| 2026-04-22 08:24 | 51.60914 | 8.69114 | 24380 ft | 492 kts | 216° |
| 2026-04-22 08:24 | 51.58108 | 8.65986 | 24374 ft | 490 kts | 207° |
| 2026-04-22 08:24 | 51.55139 | 8.63320 | 24369 ft | 489 kts | 206° |
| 2026-04-22 08:24 | 51.52166 | 8.60670 | 24367 ft | 489 kts | 206° |
| 2026-04-22 08:25 | 51.49196 | 8.58007 | 24379 ft | 489 kts | 207° |
| 2026-04-22 08:25 | 51.46231 | 8.55334 | 24389 ft | 489 kts | 207° |
| 2026-04-22 08:25 | 51.43267 | 8.52662 | 24395 ft | 488 kts | 207° |